Etusivu
METAR-TAF:

METAR-TAF

Lentoasemat :

Cap Skirring, Senegal

Leveyspiiri: 12-24N, Pituuspiiri: 016-45W, korkeus merenpinnasta: 16 m

Tämänhetkinen sää

Tämä raportti tehtiin 1 tunti ja 26 minuuttia sitten, kello 12.00 UTC
Tuuli 8 kn koillisesta
Lämpötila 33°C
Kosteus 41%
Ilmanpaine 1013 hPa
Näkyvyys 10 km tai enemmän
ei pilviä alle 1500 m:ssä eikä cumulonimbus-pilviä

METAR: GOGS 291200Z 04008KT CAVOK 33/18 Q1013

Aika: 13:26 (13:26 UTC)

Sääennuste

Tämä raportti tehtiin 1 tunti ja 56 minuuttia sitten, kello 11.30 UTC
Ennuste voimassa 29. päivästä klo 12 UTC - 30. päivään klo 12 UTC
Tuuli 8 kn pohjoisen/luoteesta
Näkyvyys 10 km tai enemmän
ei pilviä alle 1500 m:ssä eikä cumulonimbus-pilviä

TAF: GOGS 291130Z 2912/3012 34008KT CAVOK

Säähavainnot ja -ennusteet yli 4000 lentoasemalta (METAR- ja TAF-raportit).

Käytössä olevat sääasemat on merkitty karttaan keltaisilla ja punaisilla pisteillä.

Aseta hiiri pisteen päälle nähdäksesi sääaseman nimen.

Klikkaa sitten nähdäksesi säähavainnot ja -ennusteet.

Kartan vaihtaminen: klikkaa mustalla rastilla varustettuja vihreitä pisteitä, niin voit zoomata sisään; viivalla varustettua vihreää pistettä, niin voit zoomata ulos tai vihreitä nuolia, niin pääset viereisille kartoille.


METAR-TAF: